createdAt,value
2023-03-22T00:00:17.468Z,10.00
2023-03-22T00:03:04.249Z,9.90
2023-03-22T00:05:50.604Z,10.00
2023-03-22T00:08:37.304Z,10.10
2023-03-22T00:11:26.790Z,10.20
2023-03-22T00:14:12.920Z,10.20
2023-03-22T00:16:58.892Z,10.20
2023-03-22T00:19:45.024Z,10.30
2023-03-22T00:22:31.261Z,10.30
2023-03-22T00:25:18.140Z,10.30
2023-03-22T00:28:04.294Z,10.40
2023-03-22T00:31:01.660Z,10.50
2023-03-22T00:33:47.702Z,10.50
2023-03-22T00:36:33.750Z,10.60
2023-03-22T00:39:20.397Z,10.60
2023-03-22T00:42:06.597Z,10.70
2023-03-22T00:44:52.970Z,10.70
2023-03-22T00:47:39.211Z,10.70
2023-03-22T00:50:25.738Z,10.80
2023-03-22T00:53:11.749Z,10.80
2023-03-22T00:55:58.868Z,10.70
2023-03-22T00:58:46.446Z,10.60
2023-03-22T01:01:33.063Z,10.60
2023-03-22T01:04:25.969Z,10.60
2023-03-22T01:07:21.585Z,10.70
2023-03-22T01:10:08.453Z,10.70
2023-03-22T01:12:56.975Z,10.70
2023-03-22T01:15:43.087Z,10.70
2023-03-22T01:18:29.166Z,10.70
2023-03-22T01:21:15.406Z,10.70
2023-03-22T01:24:01.746Z,10.70
2023-03-22T01:26:48.120Z,10.70
2023-03-22T01:29:35.458Z,10.70
2023-03-22T01:32:21.364Z,10.70
2023-03-22T01:35:08.708Z,10.70
2023-03-22T01:37:56.024Z,10.60
2023-03-22T01:40:42.900Z,10.60
2023-03-22T01:43:29.966Z,10.50
2023-03-22T01:46:17.542Z,10.40
2023-03-22T01:49:06.714Z,10.30
2023-03-22T01:51:56.021Z,10.30
2023-03-22T01:54:55.548Z,10.30
2023-03-22T01:57:53.096Z,10.30
2023-03-22T02:00:52.038Z,10.30
2023-03-22T02:04:20.133Z,10.30
2023-03-22T02:07:15.230Z,10.40
2023-03-22T02:10:03.008Z,10.40
2023-03-22T02:13:16.251Z,10.30
2023-03-22T02:16:17.853Z,10.30
2023-03-22T02:19:48.778Z,10.10
2023-03-22T02:22:39.160Z,10.00
2023-03-22T02:25:28.324Z,9.90
2023-03-22T02:28:25.865Z,9.80
2023-03-22T02:31:37.247Z,9.70
2023-03-22T02:34:32.079Z,9.60
2023-03-22T02:37:21.343Z,9.60
2023-03-22T02:40:19.630Z,9.60
2023-03-22T02:43:15.464Z,9.50
2023-03-22T02:46:11.618Z,9.50
2023-03-22T02:49:39.378Z,9.40
2023-03-22T02:52:40.780Z,9.30
2023-03-22T02:55:59.329Z,9.20
2023-03-22T02:58:49.115Z,9.20
2023-03-22T03:01:50.733Z,9.20
2023-03-22T03:04:43.663Z,9.20
2023-03-22T03:07:31.060Z,9.10
2023-03-22T03:10:19.793Z,9.10
2023-03-22T03:13:06.135Z,9.10
2023-03-22T03:15:57.394Z,9.10
2023-03-22T03:19:05.880Z,9.10
2023-03-22T03:22:01.127Z,9.00
2023-03-22T03:24:58.448Z,8.80
2023-03-22T03:28:03.624Z,8.70
2023-03-22T03:30:58.815Z,8.60
2023-03-22T03:33:56.563Z,8.40
2023-03-22T03:36:51.191Z,8.30
2023-03-22T03:39:43.990Z,8.30
2023-03-22T03:42:31.677Z,8.30
2023-03-22T03:45:19.394Z,8.30
2023-03-22T03:48:11.756Z,8.30
2023-03-22T03:51:01.079Z,8.40
2023-03-22T03:53:47.246Z,8.50
2023-03-22T03:56:33.684Z,8.50
2023-03-22T03:59:23.284Z,8.60
2023-03-22T04:02:11.913Z,8.60
2023-03-22T04:04:58.030Z,8.60
2023-03-22T04:07:43.970Z,8.60
2023-03-22T04:10:30.560Z,8.60
2023-03-22T04:13:17.146Z,8.70
2023-03-22T04:16:03.483Z,8.70
2023-03-22T04:18:53.812Z,8.80
2023-03-22T04:21:39.919Z,8.90
2023-03-22T04:24:28.210Z,8.90
2023-03-22T04:27:15.006Z,8.90
2023-03-22T04:30:22.884Z,8.90
2023-03-22T04:33:22.962Z,8.80
2023-03-22T04:36:31.227Z,8.70
2023-03-22T04:39:33.175Z,8.60
2023-03-22T04:42:58.917Z,8.50
2023-03-22T04:46:02.004Z,8.50
2023-03-22T04:48:55.857Z,8.50
2023-03-22T04:51:42.651Z,8.50
2023-03-22T04:54:54.800Z,8.50
2023-03-22T04:57:40.744Z,8.50
2023-03-22T05:00:30.394Z,8.50
2023-03-22T05:03:19.222Z,8.50
2023-03-22T05:06:07.129Z,8.50
2023-03-22T05:09:06.296Z,8.40
2023-03-22T05:11:52.588Z,8.40
2023-03-22T05:14:56.909Z,8.40
2023-03-22T05:17:48.518Z,8.20
2023-03-22T05:20:35.387Z,8.20
2023-03-22T05:23:34.681Z,8.30
2023-03-22T05:26:26.255Z,8.30
2023-03-22T05:29:14.024Z,8.30
2023-03-22T05:32:25.481Z,8.30
2023-03-22T05:35:14.120Z,8.30
2023-03-22T05:38:06.482Z,8.20
2023-03-22T05:40:55.666Z,8.10
2023-03-22T05:43:41.963Z,8.10
2023-03-22T05:46:29.381Z,8.10
2023-03-22T05:49:34.543Z,8.20
2023-03-22T05:52:21.571Z,8.10
2023-03-22T05:55:19.888Z,8.20
2023-03-22T05:58:08.511Z,8.30
2023-03-22T06:01:03.360Z,8.30
2023-03-22T06:04:09.180Z,8.40
2023-03-22T06:07:18.931Z,8.50
2023-03-22T06:10:14.453Z,8.70
2023-03-22T06:13:00.473Z,8.80
2023-03-22T06:15:50.417Z,8.90
2023-03-22T06:18:39.826Z,9.10
2023-03-22T06:21:29.810Z,9.20
2023-03-22T06:24:15.741Z,9.20
2023-03-22T06:27:01.882Z,9.30
2023-03-22T06:29:50.907Z,9.40
2023-03-22T06:32:41.516Z,9.50
2023-03-22T06:35:27.986Z,9.60
2023-03-22T06:38:14.013Z,9.80
2023-03-22T06:40:59.858Z,10.00
2023-03-22T06:43:46.462Z,10.20
2023-03-22T06:46:47.822Z,10.30
2023-03-22T06:49:47.755Z,10.50
2023-03-22T06:52:39.119Z,10.70
2023-03-22T06:55:27.147Z,10.90
2023-03-22T06:58:14.558Z,11.00
2023-03-22T07:01:00.876Z,11.10
2023-03-22T07:03:48.428Z,11.20
2023-03-22T07:06:35.967Z,11.50
2023-03-22T07:09:24.834Z,11.70
2023-03-22T07:12:13.763Z,11.70
2023-03-22T07:15:00.438Z,11.90
2023-03-22T07:18:00.995Z,12.00
2023-03-22T07:20:47.120Z,12.10
2023-03-22T07:23:33.673Z,12.20
2023-03-22T07:26:26.389Z,12.30
2023-03-22T07:29:14.720Z,12.40
2023-03-22T07:32:00.966Z,12.50
2023-03-22T07:34:56.674Z,12.70
2023-03-22T07:37:42.929Z,12.80
2023-03-22T07:40:39.142Z,13.00
2023-03-22T07:43:26.283Z,13.20
2023-03-22T07:46:23.906Z,13.40
2023-03-22T07:49:28.763Z,13.70
2023-03-22T07:52:29.639Z,14.00
2023-03-22T07:55:17.536Z,14.10
2023-03-22T07:58:03.953Z,14.30
2023-03-22T08:00:50.428Z,14.30
2023-03-22T08:03:59.659Z,14.30
2023-03-22T08:06:58.608Z,14.50
2023-03-22T08:09:46.158Z,14.50
2023-03-22T08:12:32.656Z,14.70
2023-03-22T08:15:27.311Z,15.10
2023-03-22T08:18:13.602Z,15.30
2023-03-22T08:21:00.604Z,15.50
2023-03-22T08:23:49.947Z,15.80
2023-03-22T08:26:58.559Z,15.90
2023-03-22T08:29:52.462Z,15.90
2023-03-22T08:32:38.363Z,16.30
2023-03-22T08:35:24.545Z,16.60
2023-03-22T08:38:11.138Z,16.70
2023-03-22T08:41:05.111Z,16.80
2023-03-22T08:43:51.148Z,17.00
2023-03-22T08:46:37.581Z,17.00
2023-03-22T08:49:23.812Z,17.00
2023-03-22T08:52:18.967Z,17.00
2023-03-22T08:55:28.275Z,17.30
2023-03-22T08:58:42.520Z,17.70
2023-03-22T09:02:03.691Z,18.20
2023-03-22T09:04:50.927Z,18.60
2023-03-22T09:07:37.373Z,18.50
2023-03-22T09:10:29.735Z,18.70
2023-03-22T09:13:17.222Z,18.80
2023-03-22T09:16:10.113Z,19.00
2023-03-22T09:18:56.205Z,19.10
2023-03-22T09:21:43.676Z,19.00
2023-03-22T09:24:37.521Z,18.90
2023-03-22T09:27:23.798Z,18.90
2023-03-22T09:30:11.223Z,19.00
2023-03-22T09:32:57.343Z,19.10
2023-03-22T09:35:44.013Z,19.30
2023-03-22T09:38:33.908Z,19.60
2023-03-22T09:41:32.865Z,20.00
2023-03-22T09:44:27.349Z,20.10
2023-03-22T09:47:28.752Z,20.20
2023-03-22T09:50:25.424Z,20.80
2023-03-22T09:53:15.477Z,21.60
2023-03-22T09:56:20.960Z,22.50
2023-03-22T09:59:20.133Z,23.00
2023-03-22T10:02:36.009Z,23.20
2023-03-22T10:05:40.434Z,23.90
2023-03-22T10:08:32.318Z,24.60
2023-03-22T10:11:37.486Z,24.60
2023-03-22T10:14:34.581Z,24.60
2023-03-22T10:17:27.020Z,24.80
2023-03-22T10:20:42.962Z,24.60
2023-03-22T10:23:40.106Z,24.70
2023-03-22T10:26:32.205Z,24.60
2023-03-22T10:29:38.877Z,24.90
2023-03-22T10:32:54.786Z,25.10
2023-03-22T10:35:44.080Z,25.00
2023-03-22T10:38:31.510Z,25.00
2023-03-22T10:41:20.740Z,24.80
2023-03-22T10:44:07.420Z,24.10
2023-03-22T10:46:56.423Z,23.80
2023-03-22T10:49:48.239Z,24.20
2023-03-22T10:52:47.686Z,24.30
2023-03-22T10:55:43.617Z,24.40
2023-03-22T10:58:32.512Z,24.60
2023-03-22T11:01:45.096Z,24.90
2023-03-22T11:04:31.673Z,25.10
2023-03-22T11:07:29.663Z,25.20
2023-03-22T11:10:29.549Z,25.10
2023-03-22T11:13:22.280Z,24.80
2023-03-22T11:16:08.566Z,24.90
2023-03-22T11:18:56.835Z,25.50
2023-03-22T11:21:43.440Z,26.20
2023-03-22T11:24:33.153Z,26.10
2023-03-22T11:27:21.407Z,26.10
2023-03-22T11:30:27.819Z,26.30
2023-03-22T11:33:21.095Z,27.10
2023-03-22T11:36:18.614Z,28.00
2023-03-22T11:39:07.887Z,28.40
2023-03-22T11:41:58.041Z,28.70
2023-03-22T11:44:44.864Z,29.00
2023-03-22T11:47:38.283Z,29.00
2023-03-22T11:50:32.169Z,28.80
2023-03-22T11:53:22.433Z,28.40
2023-03-22T11:56:17.226Z,28.40
2023-03-22T11:59:08.757Z,28.20
2023-03-22T12:02:19.685Z,28.60
2023-03-22T12:05:12.808Z,28.70
2023-03-22T12:08:07.019Z,29.40
2023-03-22T12:11:07.212Z,29.40
2023-03-22T12:14:00.664Z,29.20
2023-03-22T12:16:51.103Z,29.90
2023-03-22T12:20:00.730Z,30.30
2023-03-22T12:22:52.744Z,30.40
2023-03-22T12:25:42.815Z,30.00
2023-03-22T12:28:55.200Z,29.30
2023-03-22T12:31:58.718Z,29.10
2023-03-22T12:34:50.908Z,28.90
2023-03-22T12:37:42.358Z,28.30
2023-03-22T12:40:40.812Z,27.40
2023-03-22T12:43:44.984Z,27.70
2023-03-22T12:46:42.842Z,27.40
2023-03-22T12:50:00.623Z,27.60
2023-03-22T12:52:50.336Z,28.90
2023-03-22T12:55:40.342Z,29.70
2023-03-22T12:58:27.734Z,28.90
2023-03-22T13:01:22.751Z,27.40
2023-03-22T13:04:28.057Z,27.10
2023-03-22T13:07:16.543Z,27.70
2023-03-22T13:10:36.300Z,28.80
2023-03-22T13:13:23.043Z,28.80
2023-03-22T13:16:09.632Z,28.00
2023-03-22T13:19:02.155Z,27.70
2023-03-22T13:21:50.003Z,27.90
2023-03-22T13:25:23.714Z,28.10
2023-03-22T13:28:29.610Z,28.50
2023-03-22T13:31:41.317Z,28.70
2023-03-22T13:34:37.831Z,29.10
2023-03-22T13:37:37.501Z,29.30
2023-03-22T13:40:43.823Z,29.40
2023-03-22T13:43:43.473Z,30.00
2023-03-22T13:46:45.572Z,29.50
2023-03-22T13:49:32.001Z,29.00
2023-03-22T13:52:37.416Z,28.40
2023-03-22T13:55:44.591Z,27.60
2023-03-22T13:58:36.420Z,27.00
2023-03-22T14:01:35.187Z,26.90
2023-03-22T14:04:45.483Z,26.70
2023-03-22T14:07:32.035Z,26.90
2023-03-22T14:10:31.315Z,26.40
2023-03-22T14:13:29.593Z,25.80
2023-03-22T14:16:30.284Z,26.00
2023-03-22T14:19:34.090Z,26.30
